rusio

最新の値

Datetime Temperature Humidity Pressure
14:39 25.25 36.6 1016.82
14:29 25.21 37.02 1016.99
14:19 25.1 38.18 1017.04
14:09 24.99 39.51 1017.1
13:59 24.8 41.28 1017.22
13:49 24.77 41.45 1017.3
13:39 24.67 42.39 1017.29
13:29 24.56 43.03 1017.38
13:19 24.56 43.16 1017.54
13:09 24.55 43.38 1017.68
12:59 24.49 43.68 1017.76
12:49 24.47 43.95 1017.77
12:39 24.49 43.89 1017.97
12:29 24.4 44.22 1018.02
12:19 24.42 44.91 1018.16
12:09 24.36 45.02 1018.17
11:59 24.42 45.18 1018.42
11:49 24.37 45.52 1018.5
11:39 24.28 45.62 1018.73
11:28 24.16 46.08 1018.69
11:18 24.12 46.63 1018.83
11:08 24.1 47.04 1018.96
10:58 24.04 47.42 1019.02
10:48 23.98 47.61 1019.24
10:38 23.91 47.77 1019.18
10:28 23.84 48.44 1019.22
10:18 23.84 48.84 1019.19
10:08 23.77 49.02 1019.34
09:58 23.7 49.67 1019.33
09:48 23.55 50.84 1019.35
09:38 23.46 52.04 1019.46
09:28 23.31 52.41 1018.69
09:18 22.91 53.82 1018.7
09:08 22.77 53.97 1018.74
08:58 22.73 53.78 1018.65
08:48 22.73 53.38 1018.61
08:38 22.72 53.48 1018.44
08:28 22.72 53.39 1018.49
08:18 22.73 53.4 1018.57
08:08 22.7 53.51 1018.56
07:58 22.7 53.59 1018.38
07:48 22.6 53.47 1018.34
07:38 22.61 53.32 1018.27
07:28 22.64 53.09 1018.25
07:18 22.68 52.88 1018.21
07:08 22.57 53.13 1018.19
06:58 22.52 53.11 1018.15
06:48 22.45 52.99 1017.98
06:38 22.45 52.75 1017.75
06:28 22.43 52.77 1017.68
06:18 22.43 52.78 1017.58
06:08 22.34 53.18 1017.57
05:58 22.3 53.36 1017.54
05:48 22.28 53.45 1017.35
05:38 22.24 53.35 1017.13
05:28 22.31 53.32 1017.19
05:18 22.3 53.53 1017.2
05:08 22.34 53.46 1016.96
04:58 22.38 53.51 1016.94
04:48 22.4 53.47 1017.05
04:38 22.38 53.71 1016.77
04:28 22.43 53.6 1016.62
04:18 22.48 53.55 1016.65
04:08 22.42 53.75 1016.38
03:58 22.43 53.83 1016.19
03:48 22.46 53.87 1016.11
03:38 22.53 53.93 1015.93
03:28 22.53 54.08 1015.97
03:18 22.63 53.99 1015.88
03:08 22.69 53.98 1015.75
02:58 22.74 53.89 1015.75
02:48 22.8 53.96 1015.77
02:38 22.87 54 1015.89
02:28 22.95 54.03 1015.72
02:18 22.99 53.9 1015.66
02:08 23.11 53.8 1015.49
01:58 23.22 53.6 1015.65
01:48 23.37 53.08 1015.68
01:38 23.49 52.68 1015.62
01:28 23.66 52.52 1015.56
01:18 23.77 52.28 1015.42
01:08 23.88 51.98 1015.18
00:58 23.99 51.66 1015.32
00:48 24.05 51.57 1015.54
00:38 23.96 51.45 1015.41
00:28 23.53 51.92 1016.24
00:17 23.62 51.71 1016.27
00:07 23.64 51.8 1016.33
23:57 23.64 51.58 1016.14
23:47 23.64 51.66 1016.06
23:37 23.61 51.77 1016.14
23:27 23.76 51.28 1016.2
23:17 23.67 51.75 1016
23:07 23.69 51.57 1016.28
22:57 23.73 51.53 1016.39
22:47 23.71 51.64 1016.57
22:37 23.86 51.42 1016.51
22:27 24.08 50.86 1016.39
22:17 24.34 50.44 1016.23
22:07 24.69 50.04 1016.66
21:57 24.92 50.04 1016.4
21:47 25.4 49.75 1015.83
21:37 25.32 49.8 1015.33
21:27 25.29 49.74 1015.32
21:17 25.22 49.62 1015.7
21:07 25.12 49.69 1015.36
20:57 25.06 49.64 1014.97
20:47 24.95 49.72 1015.12
20:37 24.81 49.87 1015.53
20:27 24.61 50.17 1015.13
20:17 24.34 50.47 1014.95
20:07 23.99 50.84 1014.56
19:57 23.54 51.42 1015.61
19:47 23.42 50.53 1015.37
19:37 23.36 50.27 1015.5
19:27 23.25 50.38 1015.11
19:17 23.25 49.85 1015.19
19:07 23.18 49.81 1015.36
18:57 23.09 49.77 1014.63
18:47 22.96 49.74 1014.63
18:37 22.96 49.41 1014.83
18:27 22.96 49.24 1015.18
18:17 23.25 48.38 1015.33
18:07 23.26 48.92 1015.27
17:57 23.17 49.21 1014.65
17:47 23.29 48.4 1014.36
17:37 23.35 48.96 1014.68
17:27 23.22 49.52 1015.06
17:17 23.44 48.95 1015.02
17:07 23.26 49.46 1014.83
16:57 23.39 48.82 1014.95
16:47 23.38 49.05 1014.57
16:37 23.44 48.43 1014.07
16:27 23.4 48.27 1014.34
16:17 23.49 48.5 1014.1
16:07 23.54 47.24 1014.5
15:57 23.62 46.8 1014.82
15:47 23.79 46.39 1014.41
15:37 23.92 46.78 1014.31
15:27 24.17 46.31 1014.18
15:17 24.21 46.39 1013.86
15:07 24.21 46.36 1013.64
14:57 24.1 46.54 1013.99